createdAt,value
2022-09-30T00:00:40.652Z,4.80
2022-09-30T00:05:43.700Z,4.80
2022-09-30T00:10:46.732Z,4.60
2022-09-30T00:15:51.207Z,4.60
2022-09-30T00:20:54.631Z,4.70
2022-09-30T00:25:59.875Z,4.60
2022-09-30T00:31:07.403Z,4.60
2022-09-30T00:36:11.313Z,4.60
2022-09-30T00:41:14.487Z,4.40
2022-09-30T00:46:23.826Z,4.50
2022-09-30T00:51:31.091Z,4.50
2022-09-30T00:56:39.443Z,4.40
2022-09-30T01:01:44.505Z,4.40
2022-09-30T01:06:48.230Z,4.40
2022-09-30T01:11:51.307Z,4.40
2022-09-30T01:17:03.255Z,4.40
2022-09-30T01:22:16.887Z,4.40
2022-09-30T01:27:41.776Z,4.40
2022-09-30T01:33:08.667Z,4.30
2022-09-30T01:38:17.600Z,4.30
2022-09-30T01:43:29.780Z,4.20
2022-09-30T01:48:42.548Z,4.20
2022-09-30T01:53:50.053Z,4.10
2022-09-30T01:58:57.273Z,4.10
2022-09-30T02:04:07.226Z,4.20
2022-09-30T02:09:14.924Z,4.10
2022-09-30T02:14:23.424Z,4.10
2022-09-30T02:19:33.581Z,4.00
2022-09-30T02:24:37.788Z,4.10
2022-09-30T02:29:45.781Z,4.10
2022-09-30T02:34:53.629Z,4.00
2022-09-30T02:40:02.464Z,3.90
2022-09-30T02:45:10.314Z,4.00
2022-09-30T02:50:20.382Z,4.10
2022-09-30T02:55:31.695Z,4.10
2022-09-30T03:00:35.047Z,3.90
2022-09-30T03:05:39.956Z,3.90
2022-09-30T03:10:44.031Z,3.90
2022-09-30T03:15:59.712Z,3.80
2022-09-30T03:21:17.597Z,3.70
2022-09-30T03:26:35.058Z,3.70
2022-09-30T03:31:48.148Z,3.60
2022-09-30T03:37:04.321Z,3.70
2022-09-30T03:42:17.266Z,3.80
2022-09-30T03:47:24.619Z,3.80
2022-09-30T03:52:32.199Z,3.80
2022-09-30T03:57:35.326Z,3.80
2022-09-30T04:02:38.437Z,3.80
2022-09-30T04:07:42.891Z,3.70
2022-09-30T04:12:46.187Z,3.70
2022-09-30T04:17:49.638Z,3.70
2022-09-30T04:22:57.475Z,3.70
2022-09-30T04:28:00.960Z,3.80
2022-09-30T04:33:03.970Z,3.90
2022-09-30T04:38:08.406Z,3.70
2022-09-30T04:43:11.453Z,3.70
2022-09-30T04:48:14.894Z,3.60
2022-09-30T04:53:19.451Z,3.60
2022-09-30T04:58:24.582Z,3.70
2022-09-30T05:03:27.712Z,3.80
2022-09-30T05:08:33.844Z,3.70
2022-09-30T05:13:39.897Z,3.80
2022-09-30T05:18:46.230Z,3.70
2022-09-30T05:23:51.100Z,3.70
2022-09-30T05:28:54.354Z,3.80
2022-09-30T05:33:58.336Z,3.90
2022-09-30T05:39:02.962Z,3.90
2022-09-30T05:44:07.216Z,4.10
2022-09-30T05:49:10.544Z,4.20
2022-09-30T05:54:15.137Z,4.40
2022-09-30T05:59:18.985Z,4.50
2022-09-30T06:04:22.726Z,4.80
2022-09-30T06:09:27.206Z,5.10
2022-09-30T06:14:30.434Z,5.20
2022-09-30T06:19:33.513Z,5.10
2022-09-30T06:24:37.875Z,5.40
2022-09-30T06:29:40.957Z,5.70
2022-09-30T06:34:44.916Z,5.90
2022-09-30T06:39:50.747Z,6.10
2022-09-30T06:44:54.368Z,6.30
2022-09-30T06:49:59.148Z,6.40
2022-09-30T06:55:03.943Z,6.70
2022-09-30T07:00:08.374Z,7.70
2022-09-30T07:05:11.418Z,9.40
2022-09-30T07:10:16.291Z,11.20
2022-09-30T07:15:23.248Z,12.10
2022-09-30T07:20:26.334Z,12.60
2022-09-30T07:25:30.695Z,13.50
2022-09-30T07:30:33.742Z,14.70
2022-09-30T07:35:38.118Z,15.50
2022-09-30T07:40:42.678Z,15.90
2022-09-30T07:45:46.117Z,17.30
2022-09-30T07:50:53.491Z,17.10
2022-09-30T07:56:02.225Z,17.70
2022-09-30T08:01:09.407Z,18.30
2022-09-30T08:06:15.053Z,18.60
2022-09-30T08:11:20.082Z,19.00
2022-09-30T08:16:25.277Z,17.80
2022-09-30T08:21:29.437Z,19.00
2022-09-30T08:26:33.930Z,18.80
2022-09-30T08:31:37.481Z,20.10
2022-09-30T08:36:40.705Z,20.90
2022-09-30T08:42:19.179Z,20.40
2022-09-30T08:47:43.021Z,20.60
2022-09-30T08:52:49.907Z,19.90
2022-09-30T08:57:56.426Z,19.90
2022-09-30T09:03:03.257Z,21.70
2022-09-30T09:08:15.747Z,20.70
2022-09-30T09:13:38.563Z,21.70
2022-09-30T09:18:56.474Z,22.30
2022-09-30T09:24:03.040Z,22.30
2022-09-30T09:29:20.553Z,22.00
2022-09-30T09:34:25.584Z,21.00
2022-09-30T09:39:37.924Z,19.60
2022-09-30T09:44:48.308Z,18.00
2022-09-30T09:49:57.713Z,17.40
2022-09-30T09:55:01.187Z,17.30
2022-09-30T10:00:27.178Z,17.30
2022-09-30T10:05:39.781Z,16.60
2022-09-30T10:11:58.819Z,16.30
2022-09-30T10:17:05.171Z,16.30
2022-09-30T10:22:19.569Z,16.40
2022-09-30T10:27:31.131Z,16.50
2022-09-30T10:32:36.834Z,16.70
2022-09-30T10:37:51.639Z,16.60
2022-09-30T10:42:55.411Z,16.70
2022-09-30T10:54:52.156Z,17.40
2022-09-30T11:00:00.726Z,18.70
2022-09-30T11:05:13.434Z,19.70
2022-09-30T11:10:32.967Z,19.00
2022-09-30T11:15:44.834Z,17.90
2022-09-30T11:20:54.414Z,17.20
2022-09-30T11:26:05.353Z,17.10
2022-09-30T11:31:16.092Z,16.80
2022-09-30T11:36:31.414Z,16.80
2022-09-30T11:41:39.511Z,16.90
2022-09-30T11:47:01.533Z,17.10
2022-09-30T11:52:14.088Z,18.40
2022-09-30T11:57:27.057Z,19.20
2022-09-30T12:02:37.753Z,19.80
2022-09-30T12:07:46.333Z,20.70
2022-09-30T12:12:56.167Z,21.50
2022-09-30T12:18:01.880Z,22.00
2022-09-30T12:23:16.852Z,20.20
2022-09-30T12:28:43.515Z,20.00
2022-09-30T12:33:59.882Z,21.10
2022-09-30T12:39:51.448Z,21.90
2022-09-30T12:45:24.848Z,21.90
2022-09-30T12:50:34.975Z,21.00
2022-09-30T12:55:40.944Z,21.60
2022-09-30T13:01:03.265Z,21.80
2022-09-30T13:06:06.893Z,21.30
2022-09-30T13:11:39.480Z,22.00
2022-09-30T13:17:01.346Z,21.70
2022-09-30T13:22:52.646Z,20.20
2022-09-30T13:28:28.716Z,19.60
2022-09-30T13:33:44.752Z,19.70
2022-09-30T13:39:06.999Z,19.50
2022-09-30T13:44:16.673Z,19.00
2022-09-30T13:49:24.912Z,19.00
2022-09-30T13:54:34.078Z,19.40
2022-09-30T13:59:49.267Z,19.40
2022-09-30T14:05:15.205Z,19.60
2022-09-30T14:10:40.944Z,19.80
2022-09-30T14:16:12.231Z,19.30
2022-09-30T14:21:30.753Z,19.30
2022-09-30T14:26:45.936Z,18.50
2022-09-30T14:31:49.239Z,18.30
2022-09-30T14:36:54.816Z,18.60
2022-09-30T14:57:16.045Z,18.40
2022-09-30T15:09:53.566Z,18.70
2022-09-30T16:07:05.960Z,15.60
2022-09-30T16:12:18.254Z,15.30
2022-09-30T16:17:24.835Z,14.90
2022-09-30T16:22:51.672Z,14.30
2022-09-30T16:27:58.755Z,13.70
2022-09-30T16:33:05.236Z,13.20
2022-09-30T16:38:12.557Z,12.70
2022-09-30T16:43:17.157Z,12.20
2022-09-30T16:48:21.628Z,11.90
2022-09-30T16:53:26.156Z,11.60
2022-09-30T16:58:29.750Z,11.30
2022-09-30T17:03:32.949Z,11.10
2022-09-30T17:08:37.416Z,10.80
2022-09-30T17:13:41.376Z,10.60
2022-09-30T17:18:45.118Z,10.40
2022-09-30T17:23:50.040Z,10.10
2022-09-30T17:28:53.672Z,10.00
2022-09-30T17:34:00.789Z,9.70
2022-09-30T17:39:07.591Z,9.40
2022-09-30T17:44:11.049Z,9.30
2022-09-30T17:49:20.698Z,9.20
2022-09-30T17:54:29.502Z,9.00
2022-09-30T17:59:32.534Z,8.80
2022-09-30T18:04:37.887Z,8.60
2022-09-30T18:09:42.267Z,8.70
2022-09-30T18:14:46.490Z,8.60
2022-09-30T18:19:50.157Z,8.50
2022-09-30T18:25:13.676Z,8.60
2022-09-30T18:30:18.238Z,8.50
2022-09-30T18:35:24.560Z,8.30
2022-09-30T18:40:30.452Z,8.30
2022-09-30T18:45:38.440Z,8.30
2022-09-30T18:50:42.052Z,8.20
2022-09-30T18:55:47.386Z,8.10
2022-09-30T19:00:50.554Z,8.10
2022-09-30T19:05:54.124Z,8.10
2022-09-30T19:10:58.617Z,7.90
2022-09-30T19:16:04.360Z,7.70
2022-09-30T19:21:12.980Z,7.70
2022-09-30T19:26:17.460Z,7.60
2022-09-30T19:31:21.247Z,7.60
2022-09-30T19:36:27.139Z,7.50
2022-09-30T19:41:32.292Z,7.40
2022-09-30T19:46:36.039Z,7.20
2022-09-30T19:51:39.758Z,7.10
2022-09-30T19:56:44.781Z,7.10
2022-09-30T20:01:48.371Z,7.00
2022-09-30T20:06:53.741Z,7.10
2022-09-30T20:11:58.170Z,7.00
2022-09-30T20:17:01.229Z,7.00
2022-09-30T20:22:05.362Z,6.90
2022-09-30T20:27:10.566Z,7.00
2022-09-30T20:32:14.109Z,6.90
2022-09-30T20:37:17.205Z,7.00
2022-09-30T20:42:21.578Z,6.80
2022-09-30T20:47:24.943Z,6.80
2022-09-30T20:52:29.369Z,6.70
2022-09-30T20:57:33.814Z,6.80
2022-09-30T21:02:36.921Z,6.80
2022-09-30T21:07:40.019Z,6.70
2022-09-30T21:12:45.157Z,6.70
2022-09-30T21:17:48.331Z,6.50
2022-09-30T21:22:53.866Z,6.50
2022-09-30T21:27:58.703Z,6.50
2022-09-30T21:33:01.782Z,6.50
2022-09-30T21:38:04.914Z,6.40
2022-09-30T21:43:09.923Z,6.40
2022-09-30T21:48:13.345Z,6.40
2022-09-30T21:53:16.674Z,6.50
2022-09-30T21:58:21.216Z,6.50
2022-09-30T22:03:24.775Z,6.40
2022-09-30T22:08:33.031Z,6.20
2022-09-30T22:28:40.579Z,6.60
2022-09-30T22:34:03.239Z,6.50
2022-09-30T22:39:06.459Z,6.40
2022-09-30T22:44:11.187Z,6.40
2022-09-30T22:49:14.481Z,6.50
2022-09-30T22:54:17.808Z,6.50
2022-09-30T22:59:23.481Z,6.60
2022-09-30T23:04:26.965Z,6.50
2022-09-30T23:09:31.143Z,6.40
2022-09-30T23:14:35.867Z,6.30
2022-09-30T23:19:38.906Z,6.30
2022-09-30T23:24:42.109Z,6.50
2022-09-30T23:29:47.205Z,6.40
2022-09-30T23:34:50.203Z,6.30
2022-09-30T23:39:53.317Z,6.30
2022-09-30T23:44:58.133Z,6.30
2022-09-30T23:50:01.189Z,6.10
2022-09-30T23:55:05.145Z,6.10
